sensor_id;sensor_type;location;lat;lon;timestamp;P1;durP1;ratioP1;P2;durP2;ratioP2
14381;SDS011;7275;50.328;8.720;2023-02-22T00:01:40;8.27;;;5.73;;
14381;SDS011;7275;50.328;8.720;2023-02-22T00:04:16;7.60;;;6.03;;
14381;SDS011;7275;50.328;8.720;2023-02-22T00:06:46;7.90;;;6.20;;
14381;SDS011;7275;50.328;8.720;2023-02-22T00:09:15;8.23;;;6.10;;
14381;SDS011;7275;50.328;8.720;2023-02-22T00:11:47;9.30;;;6.13;;
14381;SDS011;7275;50.328;8.720;2023-02-22T00:14:15;8.57;;;6.73;;
14381;SDS011;7275;50.328;8.720;2023-02-22T00:16:45;8.83;;;6.97;;
14381;SDS011;7275;50.328;8.720;2023-02-22T00:19:13;8.83;;;6.50;;
14381;SDS011;7275;50.328;8.720;2023-02-22T00:21:40;8.23;;;6.30;;
14381;SDS011;7275;50.328;8.720;2023-02-22T00:24:10;8.77;;;6.90;;
14381;SDS011;7275;50.328;8.720;2023-02-22T00:26:50;7.20;;;6.10;;
14381;SDS011;7275;50.328;8.720;2023-02-22T00:29:20;8.33;;;6.60;;
14381;SDS011;7275;50.328;8.720;2023-02-22T00:31:49;9.57;;;7.63;;
14381;SDS011;7275;50.328;8.720;2023-02-22T00:34:17;8.70;;;6.83;;
14381;SDS011;7275;50.328;8.720;2023-02-22T00:36:44;9.10;;;6.67;;
14381;SDS011;7275;50.328;8.720;2023-02-22T00:39:12;8.57;;;7.03;;
14381;SDS011;7275;50.328;8.720;2023-02-22T00:41:40;8.63;;;6.73;;
14381;SDS011;7275;50.328;8.720;2023-02-22T00:44:09;10.00;;;7.67;;
14381;SDS011;7275;50.328;8.720;2023-02-22T00:46:37;7.87;;;6.87;;
14381;SDS011;7275;50.328;8.720;2023-02-22T00:49:05;10.00;;;7.37;;
14381;SDS011;7275;50.328;8.720;2023-02-22T00:51:33;8.17;;;6.93;;
14381;SDS011;7275;50.328;8.720;2023-02-22T00:54:00;9.37;;;6.67;;
14381;SDS011;7275;50.328;8.720;2023-02-22T00:56:28;9.13;;;7.33;;
14381;SDS011;7275;50.328;8.720;2023-02-22T00:58:55;7.90;;;7.10;;
14381;SDS011;7275;50.328;8.720;2023-02-22T01:01:24;9.17;;;6.57;;
14381;SDS011;7275;50.328;8.720;2023-02-22T01:03:52;8.20;;;7.10;;
14381;SDS011;7275;50.328;8.720;2023-02-22T01:06:20;9.57;;;6.97;;
14381;SDS011;7275;50.328;8.720;2023-02-22T01:08:48;7.83;;;6.63;;
14381;SDS011;7275;50.328;8.720;2023-02-22T01:11:16;9.37;;;6.80;;
14381;SDS011;7275;50.328;8.720;2023-02-22T01:13:44;8.43;;;7.00;;
14381;SDS011;7275;50.328;8.720;2023-02-22T01:16:12;8.30;;;6.93;;
14381;SDS011;7275;50.328;8.720;2023-02-22T01:18:41;10.30;;;7.43;;
14381;SDS011;7275;50.328;8.720;2023-02-22T01:21:09;8.23;;;6.60;;
14381;SDS011;7275;50.328;8.720;2023-02-22T01:23:36;8.40;;;6.50;;
14381;SDS011;7275;50.328;8.720;2023-02-22T01:28:56;9.03;;;6.73;;
14381;SDS011;7275;50.328;8.720;2023-02-22T01:31:25;9.60;;;7.30;;
14381;SDS011;7275;50.328;8.720;2023-02-22T01:33:54;8.53;;;6.33;;
14381;SDS011;7275;50.328;8.720;2023-02-22T01:36:22;7.40;;;6.50;;
14381;SDS011;7275;50.328;8.720;2023-02-22T01:38:49;8.90;;;6.60;;
14381;SDS011;7275;50.328;8.720;2023-02-22T01:41:17;6.47;;;5.70;;
14381;SDS011;7275;50.328;8.720;2023-02-22T01:43:45;6.80;;;6.10;;
14381;SDS011;7275;50.328;8.720;2023-02-22T01:46:18;6.67;;;5.93;;
14381;SDS011;7275;50.328;8.720;2023-02-22T01:48:48;6.30;;;5.60;;
14381;SDS011;7275;50.328;8.720;2023-02-22T01:51:21;8.17;;;6.60;;
14381;SDS011;7275;50.328;8.720;2023-02-22T01:53:52;7.93;;;7.10;;
14381;SDS011;7275;50.328;8.720;2023-02-22T01:56:24;7.10;;;5.93;;
14381;SDS011;7275;50.328;8.720;2023-02-22T01:58:54;6.43;;;5.73;;
14381;SDS011;7275;50.328;8.720;2023-02-22T02:01:25;8.13;;;7.20;;
14381;SDS011;7275;50.328;8.720;2023-02-22T02:03:54;8.60;;;7.17;;
14381;SDS011;7275;50.328;8.720;2023-02-22T02:06:25;8.47;;;7.20;;
14381;SDS011;7275;50.328;8.720;2023-02-22T02:08:57;8.50;;;6.97;;
14381;SDS011;7275;50.328;8.720;2023-02-22T02:11:28;8.63;;;7.20;;
14381;SDS011;7275;50.328;8.720;2023-02-22T02:13:57;9.43;;;7.73;;
14381;SDS011;7275;50.328;8.720;2023-02-22T02:16:36;10.23;;;8.20;;
14381;SDS011;7275;50.328;8.720;2023-02-22T02:19:09;8.97;;;7.00;;
14381;SDS011;7275;50.328;8.720;2023-02-22T02:21:57;9.10;;;6.80;;
14381;SDS011;7275;50.328;8.720;2023-02-22T02:24:50;8.10;;;7.30;;
14381;SDS011;7275;50.328;8.720;2023-02-22T02:27:59;8.63;;;6.70;;
14381;SDS011;7275;50.328;8.720;2023-02-22T02:30:50;7.40;;;6.47;;
14381;SDS011;7275;50.328;8.720;2023-02-22T02:33:45;8.73;;;6.67;;
14381;SDS011;7275;50.328;8.720;2023-02-22T02:36:18;7.60;;;6.73;;
14381;SDS011;7275;50.328;8.720;2023-02-22T02:38:58;9.17;;;7.10;;
14381;SDS011;7275;50.328;8.720;2023-02-22T02:41:32;7.80;;;6.37;;
14381;SDS011;7275;50.328;8.720;2023-02-22T02:44:03;7.70;;;6.90;;
14381;SDS011;7275;50.328;8.720;2023-02-22T02:46:38;8.93;;;6.67;;
14381;SDS011;7275;50.328;8.720;2023-02-22T02:49:15;7.13;;;5.90;;
14381;SDS011;7275;50.328;8.720;2023-02-22T02:51:48;6.57;;;5.53;;
14381;SDS011;7275;50.328;8.720;2023-02-22T02:54:19;7.53;;;6.33;;
14381;SDS011;7275;50.328;8.720;2023-02-22T02:56:49;7.63;;;6.27;;
14381;SDS011;7275;50.328;8.720;2023-02-22T02:59:24;10.33;;;6.60;;
14381;SDS011;7275;50.328;8.720;2023-02-22T03:01:56;8.40;;;6.33;;
14381;SDS011;7275;50.328;8.720;2023-02-22T03:04:44;9.33;;;6.60;;
14381;SDS011;7275;50.328;8.720;2023-02-22T03:07:22;8.23;;;6.10;;
14381;SDS011;7275;50.328;8.720;2023-02-22T03:10:01;7.60;;;5.80;;
14381;SDS011;7275;50.328;8.720;2023-02-22T03:12:42;6.63;;;5.57;;
14381;SDS011;7275;50.328;8.720;2023-02-22T03:15:18;8.40;;;6.23;;
14381;SDS011;7275;50.328;8.720;2023-02-22T03:17:53;7.43;;;6.07;;
14381;SDS011;7275;50.328;8.720;2023-02-22T03:20:30;14.87;;;6.67;;
14381;SDS011;7275;50.328;8.720;2023-02-22T03:23:09;9.40;;;6.80;;
14381;SDS011;7275;50.328;8.720;2023-02-22T03:25:45;11.43;;;6.70;;
14381;SDS011;7275;50.328;8.720;2023-02-22T03:28:16;8.63;;;6.57;;
14381;SDS011;7275;50.328;8.720;2023-02-22T03:30:48;9.77;;;6.47;;
14381;SDS011;7275;50.328;8.720;2023-02-22T03:33:22;9.53;;;6.17;;
14381;SDS011;7275;50.328;8.720;2023-02-22T03:36:02;17.17;;;6.67;;
14381;SDS011;7275;50.328;8.720;2023-02-22T03:38:35;14.10;;;6.90;;
14381;SDS011;7275;50.328;8.720;2023-02-22T03:41:06;9.33;;;6.17;;
14381;SDS011;7275;50.328;8.720;2023-02-22T03:43:37;8.67;;;5.87;;
14381;SDS011;7275;50.328;8.720;2023-02-22T03:46:07;8.70;;;6.93;;
14381;SDS011;7275;50.328;8.720;2023-02-22T03:48:38;9.17;;;6.10;;
14381;SDS011;7275;50.328;8.720;2023-02-22T03:51:14;8.80;;;5.90;;
14381;SDS011;7275;50.328;8.720;2023-02-22T03:53:43;13.83;;;6.80;;
14381;SDS011;7275;50.328;8.720;2023-02-22T03:56:12;10.90;;;7.00;;
14381;SDS011;7275;50.328;8.720;2023-02-22T03:58:46;10.43;;;6.27;;
14381;SDS011;7275;50.328;8.720;2023-02-22T04:01:15;7.53;;;6.10;;
14381;SDS011;7275;50.328;8.720;2023-02-22T04:03:45;11.27;;;6.23;;
14381;SDS011;7275;50.328;8.720;2023-02-22T04:06:14;10.87;;;7.17;;
14381;SDS011;7275;50.328;8.720;2023-02-22T04:08:41;10.03;;;6.57;;
14381;SDS011;7275;50.328;8.720;2023-02-22T04:11:09;15.80;;;7.53;;
14381;SDS011;7275;50.328;8.720;2023-02-22T04:13:36;8.13;;;6.70;;
14381;SDS011;7275;50.328;8.720;2023-02-22T04:16:04;10.03;;;7.83;;
14381;SDS011;7275;50.328;8.720;2023-02-22T04:18:32;11.13;;;7.27;;
14381;SDS011;7275;50.328;8.720;2023-02-22T04:21:00;11.53;;;8.00;;
14381;SDS011;7275;50.328;8.720;2023-02-22T04:23:29;12.43;;;8.47;;
14381;SDS011;7275;50.328;8.720;2023-02-22T04:25:56;9.37;;;7.03;;
14381;SDS011;7275;50.328;8.720;2023-02-22T04:28:24;10.13;;;7.70;;
14381;SDS011;7275;50.328;8.720;2023-02-22T04:30:52;11.03;;;7.50;;
14381;SDS011;7275;50.328;8.720;2023-02-22T04:33:19;10.90;;;8.20;;
14381;SDS011;7275;50.328;8.720;2023-02-22T04:35:47;10.57;;;8.13;;
14381;SDS011;7275;50.328;8.720;2023-02-22T04:38:17;12.80;;;8.83;;
14381;SDS011;7275;50.328;8.720;2023-02-22T04:40:46;12.40;;;7.67;;
14381;SDS011;7275;50.328;8.720;2023-02-22T04:43:13;9.93;;;7.77;;
14381;SDS011;7275;50.328;8.720;2023-02-22T04:45:41;11.53;;;7.53;;
14381;SDS011;7275;50.328;8.720;2023-02-22T04:48:08;15.67;;;7.87;;
14381;SDS011;7275;50.328;8.720;2023-02-22T04:50:36;11.17;;;7.93;;
14381;SDS011;7275;50.328;8.720;2023-02-22T04:53:04;10.13;;;7.90;;
14381;SDS011;7275;50.328;8.720;2023-02-22T04:55:32;11.90;;;8.53;;
14381;SDS011;7275;50.328;8.720;2023-02-22T04:58:01;11.30;;;8.90;;
14381;SDS011;7275;50.328;8.720;2023-02-22T05:00:29;9.93;;;7.77;;
14381;SDS011;7275;50.328;8.720;2023-02-22T05:02:56;11.10;;;8.33;;
14381;SDS011;7275;50.328;8.720;2023-02-22T05:05:24;10.43;;;7.73;;
14381;SDS011;7275;50.328;8.720;2023-02-22T05:07:52;9.93;;;8.10;;
14381;SDS011;7275;50.328;8.720;2023-02-22T05:10:19;10.50;;;8.13;;
14381;SDS011;7275;50.328;8.720;2023-02-22T05:12:47;10.33;;;8.40;;
14381;SDS011;7275;50.328;8.720;2023-02-22T05:15:17;10.23;;;8.40;;
14381;SDS011;7275;50.328;8.720;2023-02-22T05:17:46;9.40;;;7.97;;
14381;SDS011;7275;50.328;8.720;2023-02-22T05:20:20;9.37;;;7.20;;
14381;SDS011;7275;50.328;8.720;2023-02-22T05:22:49;7.73;;;6.93;;
14381;SDS011;7275;50.328;8.720;2023-02-22T05:25:17;9.50;;;7.53;;
14381;SDS011;7275;50.328;8.720;2023-02-22T05:27:48;9.17;;;7.20;;
14381;SDS011;7275;50.328;8.720;2023-02-22T05:30:19;9.57;;;6.93;;
14381;SDS011;7275;50.328;8.720;2023-02-22T05:32:48;8.70;;;6.80;;
14381;SDS011;7275;50.328;8.720;2023-02-22T05:35:16;8.23;;;6.80;;
14381;SDS011;7275;50.328;8.720;2023-02-22T05:37:44;7.03;;;6.00;;
14381;SDS011;7275;50.328;8.720;2023-02-22T05:40:12;6.17;;;5.53;;
14381;SDS011;7275;50.328;8.720;2023-02-22T05:42:40;7.67;;;5.80;;
14381;SDS011;7275;50.328;8.720;2023-02-22T05:45:10;11.20;;;6.57;;
14381;SDS011;7275;50.328;8.720;2023-02-22T05:47:40;5.90;;;5.27;;
14381;SDS011;7275;50.328;8.720;2023-02-22T05:50:08;7.50;;;6.60;;
14381;SDS011;7275;50.328;8.720;2023-02-22T05:52:36;6.77;;;6.07;;
14381;SDS011;7275;50.328;8.720;2023-02-22T05:55:04;6.10;;;5.40;;
14381;SDS011;7275;50.328;8.720;2023-02-22T05:57:33;6.00;;;5.40;;
14381;SDS011;7275;50.328;8.720;2023-02-22T06:00:00;7.60;;;6.00;;
14381;SDS011;7275;50.328;8.720;2023-02-22T06:02:30;7.00;;;6.27;;
14381;SDS011;7275;50.328;8.720;2023-02-22T06:04:59;7.20;;;6.37;;
14381;SDS011;7275;50.328;8.720;2023-02-22T06:07:26;7.53;;;5.83;;
14381;SDS011;7275;50.328;8.720;2023-02-22T06:09:54;7.47;;;6.20;;
14381;SDS011;7275;50.328;8.720;2023-02-22T06:12:22;8.03;;;6.23;;
14381;SDS011;7275;50.328;8.720;2023-02-22T06:14:50;7.93;;;6.17;;
14381;SDS011;7275;50.328;8.720;2023-02-22T06:17:17;8.87;;;6.40;;
14381;SDS011;7275;50.328;8.720;2023-02-22T06:19:45;8.63;;;7.27;;
14381;SDS011;7275;50.328;8.720;2023-02-22T06:22:16;7.77;;;6.43;;
14381;SDS011;7275;50.328;8.720;2023-02-22T06:24:45;9.50;;;7.07;;
14381;SDS011;7275;50.328;8.720;2023-02-22T06:27:12;6.90;;;5.83;;
14381;SDS011;7275;50.328;8.720;2023-02-22T06:29:43;7.70;;;6.10;;
14381;SDS011;7275;50.328;8.720;2023-02-22T06:32:11;8.60;;;7.00;;
14381;SDS011;7275;50.328;8.720;2023-02-22T06:34:39;6.97;;;5.73;;
14381;SDS011;7275;50.328;8.720;2023-02-22T06:37:07;9.00;;;6.77;;
14381;SDS011;7275;50.328;8.720;2023-02-22T06:39:35;9.63;;;6.90;;
14381;SDS011;7275;50.328;8.720;2023-02-22T06:42:03;11.97;;;6.73;;
14381;SDS011;7275;50.328;8.720;2023-02-22T06:44:31;9.07;;;6.70;;
14381;SDS011;7275;50.328;8.720;2023-02-22T06:46:59;9.23;;;6.23;;
14381;SDS011;7275;50.328;8.720;2023-02-22T06:49:27;11.57;;;7.40;;
14381;SDS011;7275;50.328;8.720;2023-02-22T06:51:54;10.23;;;7.10;;
14381;SDS011;7275;50.328;8.720;2023-02-22T06:54:22;12.40;;;7.87;;
14381;SDS011;7275;50.328;8.720;2023-02-22T06:56:51;10.63;;;6.90;;
14381;SDS011;7275;50.328;8.720;2023-02-22T06:59:18;11.30;;;6.73;;
14381;SDS011;7275;50.328;8.720;2023-02-22T07:01:46;9.63;;;7.37;;
14381;SDS011;7275;50.328;8.720;2023-02-22T07:04:14;10.03;;;7.40;;
14381;SDS011;7275;50.328;8.720;2023-02-22T07:06:44;8.07;;;6.30;;
14381;SDS011;7275;50.328;8.720;2023-02-22T07:09:12;14.47;;;7.07;;
14381;SDS011;7275;50.328;8.720;2023-02-22T07:11:40;9.87;;;7.33;;
14381;SDS011;7275;50.328;8.720;2023-02-22T07:14:09;12.17;;;7.50;;
14381;SDS011;7275;50.328;8.720;2023-02-22T07:16:36;7.73;;;6.23;;
14381;SDS011;7275;50.328;8.720;2023-02-22T07:19:04;10.77;;;7.13;;
14381;SDS011;7275;50.328;8.720;2023-02-22T07:21:31;8.80;;;6.97;;
14381;SDS011;7275;50.328;8.720;2023-02-22T07:23:59;10.43;;;7.00;;
14381;SDS011;7275;50.328;8.720;2023-02-22T07:26:30;12.27;;;7.53;;
14381;SDS011;7275;50.328;8.720;2023-02-22T07:28:57;8.63;;;7.20;;
14381;SDS011;7275;50.328;8.720;2023-02-22T07:31:27;11.43;;;7.33;;
14381;SDS011;7275;50.328;8.720;2023-02-22T07:34:00;9.10;;;7.17;;
14381;SDS011;7275;50.328;8.720;2023-02-22T07:36:28;8.97;;;6.80;;
14381;SDS011;7275;50.328;8.720;2023-02-22T07:38:55;8.00;;;6.27;;
14381;SDS011;7275;50.328;8.720;2023-02-22T07:41:23;8.80;;;7.07;;
14381;SDS011;7275;50.328;8.720;2023-02-22T07:43:51;10.43;;;7.83;;
14381;SDS011;7275;50.328;8.720;2023-02-22T07:46:19;21.60;;;14.43;;
14381;SDS011;7275;50.328;8.720;2023-02-22T07:48:48;22.13;;;15.57;;
14381;SDS011;7275;50.328;8.720;2023-02-22T07:51:15;13.87;;;10.47;;
14381;SDS011;7275;50.328;8.720;2023-02-22T07:53:46;12.87;;;9.23;;
14381;SDS011;7275;50.328;8.720;2023-02-22T07:56:15;10.63;;;8.37;;
14381;SDS011;7275;50.328;8.720;2023-02-22T07:58:43;9.37;;;7.50;;
14381;SDS011;7275;50.328;8.720;2023-02-22T08:01:11;9.67;;;7.63;;
14381;SDS011;7275;50.328;8.720;2023-02-22T08:03:39;8.47;;;6.73;;
14381;SDS011;7275;50.328;8.720;2023-02-22T08:06:09;7.30;;;6.40;;
14381;SDS011;7275;50.328;8.720;2023-02-22T08:08:36;7.43;;;6.17;;
14381;SDS011;7275;50.328;8.720;2023-02-22T08:11:04;7.80;;;6.27;;
14381;SDS011;7275;50.328;8.720;2023-02-22T08:13:32;6.93;;;6.23;;
14381;SDS011;7275;50.328;8.720;2023-02-22T08:16:02;6.10;;;5.47;;
14381;SDS011;7275;50.328;8.720;2023-02-22T08:18:30;5.97;;;5.37;;
14381;SDS011;7275;50.328;8.720;2023-02-22T08:20:58;6.50;;;5.47;;
14381;SDS011;7275;50.328;8.720;2023-02-22T08:23:27;5.93;;;5.33;;
14381;SDS011;7275;50.328;8.720;2023-02-22T08:25:54;6.33;;;5.40;;
14381;SDS011;7275;50.328;8.720;2023-02-22T08:28:23;6.07;;;5.17;;
14381;SDS011;7275;50.328;8.720;2023-02-22T08:30:51;5.90;;;5.00;;
14381;SDS011;7275;50.328;8.720;2023-02-22T08:33:19;5.97;;;5.37;;
14381;SDS011;7275;50.328;8.720;2023-02-22T08:35:47;5.47;;;4.87;;
14381;SDS011;7275;50.328;8.720;2023-02-22T08:38:16;6.00;;;5.40;;
14381;SDS011;7275;50.328;8.720;2023-02-22T08:40:46;5.67;;;5.13;;
14381;SDS011;7275;50.328;8.720;2023-02-22T08:43:15;5.90;;;4.97;;
14381;SDS011;7275;50.328;8.720;2023-02-22T08:45:43;5.90;;;5.03;;
14381;SDS011;7275;50.328;8.720;2023-02-22T08:48:11;9.33;;;5.47;;
14381;SDS011;7275;50.328;8.720;2023-02-22T08:50:40;5.60;;;5.00;;
14381;SDS011;7275;50.328;8.720;2023-02-22T08:53:09;5.10;;;4.60;;
14381;SDS011;7275;50.328;8.720;2023-02-22T08:55:39;5.10;;;4.60;;
14381;SDS011;7275;50.328;8.720;2023-02-22T08:58:09;5.30;;;4.80;;
14381;SDS011;7275;50.328;8.720;2023-02-22T09:00:38;6.50;;;5.63;;
14381;SDS011;7275;50.328;8.720;2023-02-22T09:03:07;6.97;;;5.10;;
14381;SDS011;7275;50.328;8.720;2023-02-22T09:05:36;6.07;;;5.47;;
14381;SDS011;7275;50.328;8.720;2023-02-22T09:08:03;6.53;;;5.40;;
14381;SDS011;7275;50.328;8.720;2023-02-22T09:10:32;5.77;;;5.17;;
14381;SDS011;7275;50.328;8.720;2023-02-22T09:13:00;5.30;;;4.70;;
14381;SDS011;7275;50.328;8.720;2023-02-22T09:15:30;7.63;;;5.03;;
14381;SDS011;7275;50.328;8.720;2023-02-22T09:17:59;6.67;;;5.03;;
14381;SDS011;7275;50.328;8.720;2023-02-22T09:20:27;5.27;;;4.77;;
14381;SDS011;7275;50.328;8.720;2023-02-22T09:22:55;6.70;;;5.70;;
14381;SDS011;7275;50.328;8.720;2023-02-22T09:25:22;5.50;;;5.00;;
14381;SDS011;7275;50.328;8.720;2023-02-22T09:27:51;5.17;;;4.67;;
14381;SDS011;7275;50.328;8.720;2023-02-22T09:30:20;5.27;;;4.77;;
14381;SDS011;7275;50.328;8.720;2023-02-22T09:32:52;4.63;;;4.23;;
14381;SDS011;7275;50.328;8.720;2023-02-22T09:35:22;9.70;;;4.73;;
14381;SDS011;7275;50.328;8.720;2023-02-22T09:37:53;28.20;;;4.13;;
14381;SDS011;7275;50.328;8.720;2023-02-22T09:40:21;12.23;;;4.07;;
14381;SDS011;7275;50.328;8.720;2023-02-22T09:43:04;5.57;;;3.57;;
14381;SDS011;7275;50.328;8.720;2023-02-22T09:45:46;5.57;;;3.87;;
14381;SDS011;7275;50.328;8.720;2023-02-22T09:48:24;6.20;;;4.20;;
14381;SDS011;7275;50.328;8.720;2023-02-22T09:50:52;4.60;;;4.10;;
14381;SDS011;7275;50.328;8.720;2023-02-22T09:53:28;8.37;;;3.90;;
14381;SDS011;7275;50.328;8.720;2023-02-22T09:56:03;8.60;;;3.90;;
14381;SDS011;7275;50.328;8.720;2023-02-22T09:58:37;14.70;;;3.60;;
14381;SDS011;7275;50.328;8.720;2023-02-22T10:01:11;10.83;;;3.80;;
14381;SDS011;7275;50.328;8.720;2023-02-22T10:03:52;24.13;;;3.87;;
14381;SDS011;7275;50.328;8.720;2023-02-22T10:06:26;10.27;;;4.07;;
14381;SDS011;7275;50.328;8.720;2023-02-22T10:08:56;6.93;;;3.67;;
14381;SDS011;7275;50.328;8.720;2023-02-22T10:11:34;12.57;;;4.17;;
14381;SDS011;7275;50.328;8.720;2023-02-22T10:14:20;5.10;;;3.87;;
14381;SDS011;7275;50.328;8.720;2023-02-22T10:17:10;13.43;;;4.10;;
14381;SDS011;7275;50.328;8.720;2023-02-22T10:19:50;12.73;;;4.20;;
14381;SDS011;7275;50.328;8.720;2023-02-22T10:22:35;6.03;;;3.73;;
14381;SDS011;7275;50.328;8.720;2023-02-22T10:25:09;11.43;;;3.80;;
14381;SDS011;7275;50.328;8.720;2023-02-22T10:27:41;3.90;;;3.50;;
14381;SDS011;7275;50.328;8.720;2023-02-22T10:30:15;10.47;;;4.00;;
14381;SDS011;7275;50.328;8.720;2023-02-22T10:32:52;6.40;;;4.23;;
14381;SDS011;7275;50.328;8.720;2023-02-22T10:35:27;20.67;;;4.67;;
14381;SDS011;7275;50.328;8.720;2023-02-22T10:37:56;14.07;;;4.70;;
14381;SDS011;7275;50.328;8.720;2023-02-22T10:40:30;8.23;;;5.10;;
14381;SDS011;7275;50.328;8.720;2023-02-22T10:43:02;8.67;;;4.70;;
14381;SDS011;7275;50.328;8.720;2023-02-22T10:45:31;7.27;;;5.43;;
14381;SDS011;7275;50.328;8.720;2023-02-22T10:48:03;10.30;;;5.37;;
14381;SDS011;7275;50.328;8.720;2023-02-22T10:50:38;5.13;;;4.63;;
14381;SDS011;7275;50.328;8.720;2023-02-22T10:53:08;5.43;;;4.93;;
14381;SDS011;7275;50.328;8.720;2023-02-22T10:55:37;5.43;;;4.93;;
14381;SDS011;7275;50.328;8.720;2023-02-22T10:58:38;6.73;;;5.20;;
14381;SDS011;7275;50.328;8.720;2023-02-22T11:01:16;6.13;;;5.53;;
14381;SDS011;7275;50.328;8.720;2023-02-22T11:03:47;5.80;;;5.30;;
14381;SDS011;7275;50.328;8.720;2023-02-22T11:06:24;5.80;;;5.20;;
14381;SDS011;7275;50.328;8.720;2023-02-22T11:08:58;6.03;;;5.43;;
14381;SDS011;7275;50.328;8.720;2023-02-22T11:11:31;6.43;;;5.63;;
14381;SDS011;7275;50.328;8.720;2023-02-22T11:14:00;6.80;;;6.20;;
14381;SDS011;7275;50.328;8.720;2023-02-22T11:16:29;6.93;;;6.23;;
14381;SDS011;7275;50.328;8.720;2023-02-22T11:18:59;7.33;;;6.63;;
14381;SDS011;7275;50.328;8.720;2023-02-22T11:21:30;7.10;;;6.40;;
14381;SDS011;7275;50.328;8.720;2023-02-22T11:24:00;7.93;;;7.13;;
14381;SDS011;7275;50.328;8.720;2023-02-22T11:26:31;7.50;;;6.80;;
14381;SDS011;7275;50.328;8.720;2023-02-22T11:29:10;7.80;;;7.00;;
14381;SDS011;7275;50.328;8.720;2023-02-22T11:31:44;7.17;;;6.47;;
14381;SDS011;7275;50.328;8.720;2023-02-22T11:34:25;7.60;;;6.73;;
14381;SDS011;7275;50.328;8.720;2023-02-22T11:37:22;7.77;;;6.93;;
14381;SDS011;7275;50.328;8.720;2023-02-22T11:40:12;8.03;;;7.23;;
14381;SDS011;7275;50.328;8.720;2023-02-22T11:42:45;8.10;;;7.30;;
14381;SDS011;7275;50.328;8.720;2023-02-22T11:45:13;8.87;;;8.03;;
14381;SDS011;7275;50.328;8.720;2023-02-22T11:47:50;7.70;;;6.97;;
14381;SDS011;7275;50.328;8.720;2023-02-22T11:50:21;8.17;;;7.37;;
14381;SDS011;7275;50.328;8.720;2023-02-22T11:52:59;8.53;;;7.73;;
14381;SDS011;7275;50.328;8.720;2023-02-22T11:55:49;9.27;;;8.37;;
14381;SDS011;7275;50.328;8.720;2023-02-22T11:58:42;9.10;;;8.20;;
14381;SDS011;7275;50.328;8.720;2023-02-22T12:01:18;9.07;;;8.17;;
14381;SDS011;7275;50.328;8.720;2023-02-22T12:03:56;9.23;;;8.33;;
14381;SDS011;7275;50.328;8.720;2023-02-22T12:06:45;8.73;;;7.93;;
14381;SDS011;7275;50.328;8.720;2023-02-22T12:09:23;9.63;;;8.73;;
14381;SDS011;7275;50.328;8.720;2023-02-22T12:12:02;9.50;;;8.60;;
14381;SDS011;7275;50.328;8.720;2023-02-22T12:14:39;9.07;;;8.20;;
14381;SDS011;7275;50.328;8.720;2023-02-22T12:17:17;9.20;;;8.30;;
14381;SDS011;7275;50.328;8.720;2023-02-22T12:19:59;10.90;;;9.90;;
14381;SDS011;7275;50.328;8.720;2023-02-22T12:22:32;10.53;;;9.53;;
14381;SDS011;7275;50.328;8.720;2023-02-22T12:25:05;10.93;;;9.93;;
14381;SDS011;7275;50.328;8.720;2023-02-22T12:27:45;10.90;;;9.90;;
14381;SDS011;7275;50.328;8.720;2023-02-22T12:30:17;11.30;;;10.17;;
14381;SDS011;7275;50.328;8.720;2023-02-22T12:32:50;11.93;;;10.73;;
14381;SDS011;7275;50.328;8.720;2023-02-22T12:35:22;11.80;;;10.70;;
14381;SDS011;7275;50.328;8.720;2023-02-22T12:37:55;11.60;;;10.47;;
14381;SDS011;7275;50.328;8.720;2023-02-22T12:40:31;12.47;;;11.17;;
14381;SDS011;7275;50.328;8.720;2023-02-22T12:43:05;11.87;;;10.73;;
14381;SDS011;7275;50.328;8.720;2023-02-22T12:45:42;12.50;;;11.20;;
14381;SDS011;7275;50.328;8.720;2023-02-22T12:48:19;13.77;;;12.43;;
14381;SDS011;7275;50.328;8.720;2023-02-22T12:50:54;12.60;;;11.37;;
14381;SDS011;7275;50.328;8.720;2023-02-22T12:53:27;13.60;;;12.30;;
14381;SDS011;7275;50.328;8.720;2023-02-22T12:56:01;12.97;;;11.73;;
14381;SDS011;7275;50.328;8.720;2023-02-22T12:58:44;13.17;;;11.87;;
14381;SDS011;7275;50.328;8.720;2023-02-22T13:01:19;12.50;;;11.30;;
14381;SDS011;7275;50.328;8.720;2023-02-22T13:03:49;12.43;;;11.20;;
14381;SDS011;7275;50.328;8.720;2023-02-22T13:06:21;12.97;;;11.67;;
14381;SDS011;7275;50.328;8.720;2023-02-22T13:09:01;13.07;;;10.47;;
14381;SDS011;7275;50.328;8.720;2023-02-22T13:11:39;11.23;;;10.03;;
14381;SDS011;7275;50.328;8.720;2023-02-22T13:14:18;11.20;;;10.10;;
14381;SDS011;7275;50.328;8.720;2023-02-22T13:17:02;12.40;;;11.20;;
14381;SDS011;7275;50.328;8.720;2023-02-22T13:19:37;12.20;;;11.10;;
14381;SDS011;7275;50.328;8.720;2023-02-22T13:22:12;12.00;;;10.70;;
14381;SDS011;7275;50.328;8.720;2023-02-22T13:24:48;11.77;;;10.57;;
14381;SDS011;7275;50.328;8.720;2023-02-22T13:27:28;12.43;;;11.13;;
14381;SDS011;7275;50.328;8.720;2023-02-22T13:30:01;13.90;;;12.03;;
14381;SDS011;7275;50.328;8.720;2023-02-22T13:32:36;12.30;;;11.10;;
14381;SDS011;7275;50.328;8.720;2023-02-22T13:35:29;12.97;;;11.67;;
14381;SDS011;7275;50.328;8.720;2023-02-22T13:38:16;12.67;;;11.20;;
14381;SDS011;7275;50.328;8.720;2023-02-22T13:41:07;11.93;;;10.40;;
14381;SDS011;7275;50.328;8.720;2023-02-22T13:44:00;13.37;;;11.13;;
14381;SDS011;7275;50.328;8.720;2023-02-22T13:47:00;11.30;;;10.10;;
14381;SDS011;7275;50.328;8.720;2023-02-22T13:50:03;12.53;;;10.53;;
14381;SDS011;7275;50.328;8.720;2023-02-22T13:52:43;12.37;;;11.10;;
14381;SDS011;7275;50.328;8.720;2023-02-22T13:55:14;12.90;;;11.53;;
14381;SDS011;7275;50.328;8.720;2023-02-22T13:57:46;12.23;;;10.87;;
14381;SDS011;7275;50.328;8.720;2023-02-22T14:00:19;12.87;;;11.47;;
14381;SDS011;7275;50.328;8.720;2023-02-22T14:02:56;11.27;;;10.07;;
14381;SDS011;7275;50.328;8.720;2023-02-22T14:05:45;11.33;;;10.20;;
14381;SDS011;7275;50.328;8.720;2023-02-22T14:14:12;12.93;;;10.40;;
14381;SDS011;7275;50.328;8.720;2023-02-22T14:16:43;12.73;;;10.93;;
14381;SDS011;7275;50.328;8.720;2023-02-22T14:19:31;13.60;;;10.90;;
14381;SDS011;7275;50.328;8.720;2023-02-22T14:21:59;12.57;;;10.83;;
14381;SDS011;7275;50.328;8.720;2023-02-22T14:24:29;11.63;;;10.43;;
14381;SDS011;7275;50.328;8.720;2023-02-22T14:27:08;12.80;;;11.30;;
14381;SDS011;7275;50.328;8.720;2023-02-22T14:29:43;12.10;;;10.80;;
14381;SDS011;7275;50.328;8.720;2023-02-22T14:32:20;13.00;;;11.20;;
14381;SDS011;7275;50.328;8.720;2023-02-22T14:34:58;12.20;;;10.93;;
14381;SDS011;7275;50.328;8.720;2023-02-22T14:37:35;11.67;;;10.33;;
14381;SDS011;7275;50.328;8.720;2023-02-22T14:40:06;12.10;;;10.83;;
14381;SDS011;7275;50.328;8.720;2023-02-22T14:42:45;11.27;;;10.13;;
14381;SDS011;7275;50.328;8.720;2023-02-22T14:45:17;13.63;;;10.40;;
14381;SDS011;7275;50.328;8.720;2023-02-22T14:47:52;11.57;;;10.37;;
14381;SDS011;7275;50.328;8.720;2023-02-22T14:50:32;12.50;;;10.20;;
14381;SDS011;7275;50.328;8.720;2023-02-22T14:53:12;11.57;;;9.40;;
14381;SDS011;7275;50.328;8.720;2023-02-22T14:55:48;11.10;;;9.87;;
14381;SDS011;7275;50.328;8.720;2023-02-22T14:58:22;10.60;;;9.50;;
14381;SDS011;7275;50.328;8.720;2023-02-22T15:00:55;10.50;;;9.40;;
14381;SDS011;7275;50.328;8.720;2023-02-22T15:03:28;10.50;;;9.33;;
14381;SDS011;7275;50.328;8.720;2023-02-22T15:06:03;10.93;;;9.83;;
14381;SDS011;7275;50.328;8.720;2023-02-22T15:08:33;10.67;;;9.57;;
14381;SDS011;7275;50.328;8.720;2023-02-22T15:11:10;9.80;;;8.80;;
14381;SDS011;7275;50.328;8.720;2023-02-22T15:13:48;10.43;;;9.10;;
14381;SDS011;7275;50.328;8.720;2023-02-22T15:16:17;10.07;;;9.07;;
14381;SDS011;7275;50.328;8.720;2023-02-22T15:18:48;10.23;;;8.70;;
14381;SDS011;7275;50.328;8.720;2023-02-22T15:21:20;11.30;;;9.13;;
14381;SDS011;7275;50.328;8.720;2023-02-22T15:23:50;10.30;;;8.90;;
14381;SDS011;7275;50.328;8.720;2023-02-22T15:26:22;10.00;;;8.93;;
14381;SDS011;7275;50.328;8.720;2023-02-22T15:28:53;9.73;;;8.47;;
14381;SDS011;7275;50.328;8.720;2023-02-22T15:31:23;10.13;;;8.83;;
14381;SDS011;7275;50.328;8.720;2023-02-22T15:33:55;10.53;;;9.43;;